createdAt,value
2017-07-21T00:00:11.847Z,15.90
2017-07-21T00:02:39.366Z,15.90
2017-07-21T00:05:07.178Z,16.00
2017-07-21T00:07:34.727Z,16.00
2017-07-21T00:10:02.242Z,15.90
2017-07-21T00:12:30.118Z,16.00
2017-07-21T00:14:57.623Z,15.90
2017-07-21T00:17:25.131Z,15.90
2017-07-21T00:19:53.053Z,15.90
2017-07-21T00:22:20.576Z,15.80
2017-07-21T00:24:48.127Z,15.80
2017-07-21T00:27:16.106Z,15.80
2017-07-21T00:29:43.740Z,15.80
2017-07-21T00:32:11.255Z,15.90
2017-07-21T00:34:38.823Z,16.00
2017-07-21T00:37:06.326Z,16.00
2017-07-21T00:39:33.843Z,16.00
2017-07-21T00:42:01.419Z,16.00
2017-07-21T00:44:28.947Z,15.90
2017-07-21T00:46:56.460Z,15.90
2017-07-21T00:49:24.005Z,15.90
2017-07-21T00:51:51.648Z,16.00
2017-07-21T00:54:19.163Z,16.10
2017-07-21T00:56:47.080Z,16.00
2017-07-21T00:59:14.589Z,16.00
2017-07-21T01:01:42.094Z,16.00
2017-07-21T01:04:09.887Z,16.00
2017-07-21T01:06:37.659Z,15.90
2017-07-21T01:09:05.843Z,15.80
2017-07-21T01:11:34.131Z,15.80
2017-07-21T01:14:01.715Z,15.70
2017-07-21T01:16:29.223Z,15.60
2017-07-21T01:18:56.755Z,15.60
2017-07-21T01:21:24.565Z,15.50
2017-07-21T01:23:52.221Z,15.50
2017-07-21T01:26:19.802Z,15.50
2017-07-21T01:28:47.622Z,15.40
2017-07-21T01:31:15.139Z,15.40
2017-07-21T01:33:42.664Z,15.40
2017-07-21T01:36:10.470Z,15.40
2017-07-21T01:38:37.975Z,15.50
2017-07-21T01:41:05.511Z,15.50
2017-07-21T01:43:33.326Z,15.50
2017-07-21T01:46:00.847Z,15.50
2017-07-21T01:48:28.353Z,15.40
2017-07-21T01:50:55.900Z,15.30
2017-07-21T01:53:23.487Z,15.30
2017-07-21T01:55:51.008Z,15.30
2017-07-21T01:58:18.895Z,15.20
2017-07-21T02:00:46.418Z,15.20
2017-07-21T02:03:13.982Z,15.20
2017-07-21T02:05:41.722Z,15.20
2017-07-21T02:08:09.252Z,15.30
2017-07-21T02:10:37.067Z,15.40
2017-07-21T02:13:04.583Z,15.30
2017-07-21T02:15:32.089Z,15.40
2017-07-21T02:17:59.906Z,15.40
2017-07-21T02:20:27.520Z,15.50
2017-07-21T02:22:55.027Z,15.50
2017-07-21T02:25:22.883Z,15.50
2017-07-21T02:27:50.434Z,15.60
2017-07-21T02:30:17.995Z,15.60
2017-07-21T02:32:45.638Z,15.60
2017-07-21T02:35:13.151Z,15.50
2017-07-21T02:37:40.705Z,15.50
2017-07-21T02:40:08.288Z,15.50
2017-07-21T02:42:35.848Z,15.60
2017-07-21T02:45:03.764Z,15.50
2017-07-21T02:47:31.279Z,15.50
2017-07-21T02:49:58.791Z,15.40
2017-07-21T02:52:26.591Z,15.30
2017-07-21T02:54:54.091Z,15.30
2017-07-21T02:57:21.676Z,15.20
2017-07-21T02:59:49.279Z,15.30
2017-07-21T03:02:16.791Z,15.30
2017-07-21T03:04:44.528Z,15.30
2017-07-21T03:07:12.135Z,15.20
2017-07-21T03:09:39.759Z,15.20
2017-07-21T03:12:07.389Z,15.20
2017-07-21T03:14:34.927Z,15.20
2017-07-21T03:17:02.628Z,15.30
2017-07-21T03:19:30.199Z,15.30
2017-07-21T03:21:58.015Z,15.40
2017-07-21T03:24:25.527Z,15.40
2017-07-21T03:26:53.034Z,15.40
2017-07-21T03:29:20.587Z,15.50
2017-07-21T03:31:48.091Z,15.50
2017-07-21T03:34:15.688Z,15.50
2017-07-21T03:36:43.594Z,15.40
2017-07-21T03:39:11.099Z,15.50
2017-07-21T03:41:38.622Z,15.40
2017-07-21T03:44:06.486Z,15.40
2017-07-21T03:46:34.039Z,15.50
2017-07-21T03:49:01.634Z,15.50
2017-07-21T03:51:29.203Z,15.40
2017-07-21T03:53:56.727Z,15.40
2017-07-21T03:56:24.272Z,15.50
2017-07-21T03:58:52.129Z,15.50
2017-07-21T04:01:19.663Z,15.50
2017-07-21T04:03:47.282Z,15.50
2017-07-21T04:06:15.158Z,15.40
2017-07-21T04:08:42.658Z,15.30
2017-07-21T04:11:10.166Z,15.20
2017-07-21T04:13:37.966Z,15.20
2017-07-21T04:16:05.489Z,15.30
2017-07-21T04:18:33.093Z,15.40
2017-07-21T04:21:00.648Z,15.30
2017-07-21T04:23:28.223Z,15.40
2017-07-21T04:25:55.778Z,15.60
2017-07-21T04:28:24.093Z,15.80
2017-07-21T04:30:51.607Z,15.70
2017-07-21T04:33:19.130Z,15.90
2017-07-21T04:35:46.813Z,16.10
2017-07-21T04:38:14.459Z,16.30
2017-07-21T04:40:41.982Z,16.60
2017-07-21T04:43:09.641Z,16.60
2017-07-21T04:45:37.461Z,16.90
2017-07-21T04:48:05.306Z,17.40
2017-07-21T04:50:33.241Z,17.60
2017-07-21T04:53:00.747Z,17.50
2017-07-21T04:55:28.250Z,17.40
2017-07-21T04:57:55.879Z,17.40
2017-07-21T05:00:23.503Z,17.40
2017-07-21T05:02:51.694Z,17.40
2017-07-21T05:05:19.270Z,17.60
2017-07-21T05:07:47.004Z,17.50
2017-07-21T05:10:15.018Z,17.50
2017-07-21T05:12:42.667Z,17.40
2017-07-21T05:15:10.178Z,17.40
2017-07-21T05:17:37.820Z,17.40
2017-07-21T05:20:05.343Z,17.50
2017-07-21T05:22:33.047Z,17.40
2017-07-21T05:25:00.859Z,17.40
2017-07-21T05:27:28.503Z,17.40
2017-07-21T05:29:56.056Z,17.60
2017-07-21T05:32:23.784Z,17.60
2017-07-21T05:34:51.523Z,17.60
2017-07-21T05:37:19.203Z,17.50
2017-07-21T05:39:46.944Z,17.30
2017-07-21T05:42:15.191Z,17.50
2017-07-21T05:44:42.983Z,17.40
2017-07-21T05:47:10.947Z,17.50
2017-07-21T05:49:38.719Z,17.60
2017-07-21T05:52:06.387Z,17.90
2017-07-21T05:54:34.163Z,18.30
2017-07-21T05:57:01.920Z,18.50
2017-07-21T06:12:16.984Z,18.90
2017-07-21T06:14:44.642Z,19.30
2017-07-21T06:17:12.922Z,19.00
2017-07-21T06:19:41.803Z,18.90
2017-07-21T06:22:09.749Z,18.90
2017-07-21T06:24:37.527Z,19.20
2017-07-21T06:27:05.831Z,19.70
2017-07-21T06:29:33.523Z,19.80
2017-07-21T06:32:01.202Z,19.70
2017-07-21T06:34:28.908Z,19.80
2017-07-21T06:36:56.612Z,19.90
2017-07-21T06:39:24.406Z,19.80
2017-07-21T06:41:52.182Z,19.60
2017-07-21T06:44:19.719Z,19.90
2017-07-21T06:46:47.222Z,20.60
2017-07-21T06:49:14.770Z,21.60
2017-07-21T06:51:42.295Z,22.20
2017-07-21T06:54:09.954Z,22.30
2017-07-21T06:56:37.744Z,22.60
2017-07-21T06:59:05.382Z,23.50
2017-07-21T07:01:32.899Z,23.20
2017-07-21T07:04:00.594Z,23.20
2017-07-21T07:06:28.402Z,24.00
2017-07-21T07:08:56.085Z,25.30
2017-07-21T07:11:24.192Z,26.80
2017-07-21T07:13:51.779Z,26.70
2017-07-21T07:16:19.550Z,27.50
2017-07-21T07:18:47.195Z,27.50
2017-07-21T07:21:14.702Z,28.00
2017-07-21T07:23:42.206Z,27.80
2017-07-21T07:26:10.035Z,28.00
2017-07-21T07:28:37.543Z,28.10
2017-07-21T07:31:05.044Z,29.20
2017-07-21T07:33:32.843Z,29.60
2017-07-21T07:36:00.351Z,29.30
2017-07-21T07:38:27.902Z,29.00
2017-07-21T07:40:55.759Z,29.50
2017-07-21T07:43:23.263Z,30.70
2017-07-21T07:45:50.786Z,31.00
2017-07-21T07:48:18.366Z,31.50
2017-07-21T07:50:45.870Z,31.10
2017-07-21T07:53:13.374Z,31.10
2017-07-21T07:55:41.278Z,31.50
2017-07-21T07:58:08.786Z,31.40
2017-07-21T08:00:36.290Z,32.30
2017-07-21T08:03:04.092Z,31.70
2017-07-21T08:05:31.691Z,33.10
2017-07-21T08:07:59.415Z,34.20
2017-07-21T08:10:27.267Z,34.10
2017-07-21T08:12:55.100Z,33.70
2017-07-21T08:15:22.626Z,33.20
2017-07-21T08:17:50.226Z,33.20
2017-07-21T08:20:17.889Z,33.80
2017-07-21T08:22:45.438Z,32.90
2017-07-21T08:25:13.022Z,33.20
2017-07-21T08:27:40.730Z,31.60
2017-07-21T08:30:08.249Z,31.60
2017-07-21T08:32:35.846Z,32.50
2017-07-21T08:35:03.375Z,32.40
2017-07-21T08:37:30.875Z,31.70
2017-07-21T08:39:58.434Z,31.60
2017-07-21T08:42:26.246Z,32.00
2017-07-21T08:44:53.781Z,32.40
2017-07-21T08:47:21.324Z,33.00
2017-07-21T08:49:48.870Z,32.80
2017-07-21T08:52:16.449Z,33.20
2017-07-21T08:54:43.994Z,33.40
2017-07-21T08:57:11.535Z,33.60
2017-07-21T08:59:39.104Z,33.30
2017-07-21T09:02:06.611Z,33.40
2017-07-21T09:04:34.250Z,33.50
2017-07-21T09:07:01.811Z,32.70
2017-07-21T09:09:29.548Z,33.10
2017-07-21T09:11:57.456Z,33.50
2017-07-21T09:14:24.982Z,34.00
2017-07-21T09:16:52.490Z,33.60
2017-07-21T09:19:20.405Z,32.50
2017-07-21T09:21:47.905Z,32.40
2017-07-21T09:24:15.402Z,32.30
2017-07-21T09:26:43.184Z,33.00
2017-07-21T09:29:11.108Z,33.70
2017-07-21T09:31:38.615Z,33.00
2017-07-21T09:34:06.164Z,33.20
2017-07-21T09:36:33.680Z,33.40
2017-07-21T09:39:01.196Z,33.10
2017-07-21T09:41:28.763Z,33.70
2017-07-21T09:43:56.335Z,32.60
2017-07-21T09:46:23.846Z,33.20
2017-07-21T09:48:51.686Z,31.70
2017-07-21T09:51:19.550Z,31.60
2017-07-21T09:53:47.127Z,32.20
2017-07-21T09:56:14.663Z,33.20
2017-07-21T09:58:42.163Z,34.80
2017-07-21T10:01:09.658Z,36.00
2017-07-21T10:03:37.171Z,35.50
2017-07-21T10:06:05.174Z,34.20
2017-07-21T10:08:32.683Z,34.40
2017-07-21T10:11:00.223Z,34.60
2017-07-21T10:13:27.987Z,33.20
2017-07-21T10:15:55.499Z,34.60
2017-07-21T10:18:22.998Z,34.80
2017-07-21T10:20:50.621Z,34.80
2017-07-21T10:23:18.131Z,33.60
2017-07-21T10:25:45.981Z,33.40
2017-07-21T10:28:13.794Z,32.00
2017-07-21T10:30:41.290Z,30.90
2017-07-21T10:33:09.063Z,32.50
2017-07-21T10:35:36.689Z,34.40
2017-07-21T10:38:04.303Z,35.20
2017-07-21T10:40:32.359Z,35.20
2017-07-21T10:43:00.043Z,35.70
2017-07-21T10:45:27.578Z,34.90
2017-07-21T10:47:55.179Z,34.10
2017-07-21T10:50:22.693Z,35.20
2017-07-21T10:52:50.198Z,36.00
2017-07-21T10:55:18.206Z,36.10
2017-07-21T10:57:45.985Z,34.60
2017-07-21T11:00:13.507Z,34.60
2017-07-21T11:02:41.078Z,34.50
2017-07-21T11:05:08.599Z,34.10
2017-07-21T11:07:36.269Z,34.50
2017-07-21T11:10:04.364Z,35.10
2017-07-21T11:12:31.906Z,35.20
2017-07-21T11:14:59.456Z,35.50
2017-07-21T11:17:27.012Z,34.50
2017-07-21T11:19:54.631Z,34.70
2017-07-21T11:22:22.197Z,34.30
2017-07-21T11:24:49.871Z,35.50
2017-07-21T11:27:17.398Z,35.50
2017-07-21T11:29:45.230Z,36.30
2017-07-21T11:32:12.784Z,37.50
2017-07-21T11:34:40.561Z,36.60
2017-07-21T11:37:08.151Z,36.40
2017-07-21T11:39:35.719Z,35.80
2017-07-21T11:42:03.245Z,36.70
2017-07-21T11:44:30.817Z,38.00
2017-07-21T11:46:58.642Z,37.90
2017-07-21T11:49:26.268Z,37.50
2017-07-21T11:51:54.056Z,36.70
2017-07-21T11:54:21.674Z,35.80
2017-07-21T11:56:49.216Z,36.60
2017-07-21T11:59:16.626Z,35.30
2017-07-21T12:01:44.287Z,35.20
2017-07-21T12:04:11.802Z,34.70
2017-07-21T12:06:39.388Z,34.60
2017-07-21T12:09:06.898Z,35.70
2017-07-21T12:11:34.423Z,35.00
2017-07-21T12:14:02.030Z,36.10
2017-07-21T12:16:29.573Z,35.50
2017-07-21T12:18:57.219Z,34.90
2017-07-21T12:21:25.174Z,34.60
2017-07-21T12:23:52.978Z,33.80
2017-07-21T12:26:20.870Z,34.70
2017-07-21T12:28:48.696Z,36.20
2017-07-21T12:31:16.434Z,37.00
2017-07-21T12:33:44.088Z,37.20
2017-07-21T12:36:11.877Z,36.60
2017-07-21T12:38:39.832Z,36.30
2017-07-21T12:41:08.445Z,36.10
2017-07-21T12:43:36.376Z,35.30
2017-07-21T12:46:04.150Z,35.50
2017-07-21T12:48:31.694Z,35.30
2017-07-21T12:50:59.274Z,35.10
2017-07-21T12:53:27.058Z,35.10
2017-07-21T12:55:54.817Z,35.80
2017-07-21T12:58:22.403Z,36.60
2017-07-21T13:00:49.908Z,37.20
2017-07-21T13:03:17.170Z,37.10
2017-07-21T13:05:44.724Z,38.60
2017-07-21T13:08:12.323Z,38.60
2017-07-21T13:10:39.837Z,38.50
2017-07-21T13:13:07.397Z,37.70
2017-07-21T13:15:34.908Z,36.40
2017-07-21T13:18:02.410Z,35.30
2017-07-21T13:20:30.004Z,35.20
2017-07-21T13:22:57.554Z,35.20
2017-07-21T13:25:25.071Z,35.80
2017-07-21T13:27:52.656Z,35.90
2017-07-21T13:30:20.163Z,37.10
2017-07-21T13:32:47.672Z,37.60
2017-07-21T13:35:15.259Z,37.00
2017-07-21T13:37:42.761Z,36.80
2017-07-21T13:40:10.267Z,36.00
2017-07-21T13:42:37.826Z,35.80
2017-07-21T13:45:05.349Z,36.30
2017-07-21T13:47:32.928Z,37.90
2017-07-21T13:50:00.517Z,37.70
2017-07-21T13:52:28.068Z,36.50
2017-07-21T13:54:55.571Z,35.80
2017-07-21T13:57:23.207Z,34.70
2017-07-21T13:59:51.356Z,34.10
2017-07-21T14:02:19.101Z,33.10
2017-07-21T14:04:46.897Z,33.20
2017-07-21T14:07:14.594Z,33.40
2017-07-21T14:09:42.162Z,33.90
2017-07-21T14:12:09.786Z,34.80
2017-07-21T14:14:37.517Z,35.60
2017-07-21T14:17:05.160Z,35.50
2017-07-21T14:19:32.939Z,35.90
2017-07-21T14:22:00.615Z,35.90
2017-07-21T14:24:28.143Z,35.50
2017-07-21T14:26:55.690Z,35.50
2017-07-21T14:29:23.295Z,36.60
2017-07-21T14:31:50.807Z,36.80
2017-07-21T14:34:18.975Z,37.10
2017-07-21T14:36:46.832Z,35.80
2017-07-21T14:39:14.634Z,35.00
2017-07-21T14:41:42.527Z,34.50
2017-07-21T14:44:10.511Z,34.40
2017-07-21T14:46:38.270Z,35.00
2017-07-21T14:49:05.860Z,35.30
2017-07-21T14:51:33.507Z,35.80
2017-07-21T14:54:01.021Z,35.80
2017-07-21T14:56:28.580Z,36.70
2017-07-21T14:58:56.084Z,36.40
2017-07-21T15:01:23.587Z,36.10
2017-07-21T15:03:51.148Z,35.20
2017-07-21T15:06:18.728Z,34.00
2017-07-21T15:08:46.244Z,33.90
2017-07-21T15:11:13.791Z,34.70
2017-07-21T15:13:41.291Z,34.20
2017-07-21T15:16:08.803Z,34.60
2017-07-21T15:18:36.358Z,34.40
2017-07-21T15:21:03.862Z,33.80
2017-07-21T15:23:31.355Z,34.30
2017-07-21T15:25:58.903Z,34.60
2017-07-21T15:28:26.414Z,34.30
2017-07-21T15:30:53.919Z,34.60
2017-07-21T15:33:21.523Z,34.90
2017-07-21T15:35:49.056Z,34.50
2017-07-21T15:38:16.849Z,34.50
2017-07-21T15:40:44.794Z,34.80
2017-07-21T15:43:12.643Z,35.00
2017-07-21T15:45:40.203Z,34.80
2017-07-21T15:48:08.014Z,34.80
2017-07-21T15:50:35.531Z,35.10
2017-07-21T15:53:03.051Z,35.10
2017-07-21T15:55:30.648Z,34.60
2017-07-21T15:57:58.358Z,34.30
2017-07-21T16:00:26.047Z,34.20
2017-07-21T16:02:53.619Z,34.20
2017-07-21T16:05:21.130Z,32.90
2017-07-21T16:07:48.638Z,32.60
2017-07-21T16:10:16.220Z,32.60
2017-07-21T16:12:45.872Z,32.00
2017-07-21T16:15:13.423Z,31.90
2017-07-21T16:17:41.127Z,32.00
2017-07-21T16:20:08.684Z,32.30
2017-07-21T16:22:36.210Z,32.30
2017-07-21T16:25:03.730Z,32.80
2017-07-21T16:27:31.282Z,33.00
2017-07-21T16:29:59.778Z,33.00
2017-07-21T16:32:27.454Z,32.80
2017-07-21T16:34:55.108Z,32.50
2017-07-21T16:37:22.759Z,32.20
2017-07-21T16:39:51.483Z,31.50
2017-07-21T16:42:19.387Z,31.50
2017-07-21T16:44:47.206Z,31.40
2017-07-21T16:47:14.800Z,31.30
2017-07-21T16:49:42.627Z,31.30
2017-07-21T16:52:10.464Z,31.50
2017-07-21T16:54:38.067Z,31.60
2017-07-21T16:57:05.718Z,31.80
2017-07-21T16:59:33.222Z,31.40
2017-07-21T17:02:00.811Z,31.30
2017-07-21T17:04:28.378Z,31.20
2017-07-21T17:06:55.941Z,31.00
2017-07-21T17:09:23.464Z,30.90
2017-07-21T17:11:51.048Z,30.70
2017-07-21T17:14:18.574Z,30.40
2017-07-21T17:16:46.159Z,30.20
2017-07-21T17:19:14.382Z,30.30
2017-07-21T17:21:41.918Z,30.20
2017-07-21T17:24:09.478Z,29.90
2017-07-21T17:26:37.169Z,29.90
2017-07-21T17:29:04.663Z,29.90
2017-07-21T17:31:32.179Z,29.80
2017-07-21T17:33:59.835Z,29.70
2017-07-21T17:36:27.455Z,29.30
2017-07-21T17:38:54.958Z,29.30
2017-07-21T17:41:22.511Z,29.20
2017-07-21T17:43:50.193Z,29.00
2017-07-21T17:46:17.706Z,28.80
2017-07-21T17:48:45.278Z,28.70
2017-07-21T17:51:12.819Z,28.40
2017-07-21T17:53:40.343Z,28.40
2017-07-21T17:56:07.944Z,28.10
2017-07-21T17:58:35.442Z,28.00
2017-07-21T18:01:03.643Z,27.90
2017-07-21T18:03:31.211Z,27.70
2017-07-21T18:05:58.779Z,27.60
2017-07-21T18:08:26.374Z,27.60
2017-07-21T18:10:53.949Z,27.50
2017-07-21T18:13:21.514Z,27.50
2017-07-21T18:15:49.186Z,27.40
2017-07-21T18:18:16.779Z,27.40
2017-07-21T18:20:44.306Z,27.20
2017-07-21T18:23:11.810Z,27.10
2017-07-21T18:25:39.407Z,27.10
2017-07-21T18:28:06.932Z,27.10
2017-07-21T18:30:34.493Z,27.00
2017-07-21T18:33:02.046Z,26.90
2017-07-21T18:35:29.551Z,27.00
2017-07-21T18:37:57.105Z,26.90
2017-07-21T18:40:24.674Z,26.90
2017-07-21T18:42:52.199Z,26.80
2017-07-21T18:45:19.764Z,26.70
2017-07-21T18:47:47.942Z,26.70
2017-07-21T18:50:15.438Z,26.60
2017-07-21T18:52:43.106Z,26.50
2017-07-21T18:55:10.623Z,26.40
2017-07-21T18:57:38.133Z,26.30
2017-07-21T19:00:05.697Z,26.20
2017-07-21T19:02:33.221Z,26.10
2017-07-21T19:05:00.795Z,26.00
2017-07-21T19:07:28.396Z,25.90
2017-07-21T19:09:55.918Z,25.50
2017-07-21T19:12:23.414Z,25.50
2017-07-21T19:14:51.013Z,25.60
2017-07-21T19:17:18.523Z,25.60
2017-07-21T19:19:46.515Z,25.60
2017-07-21T19:22:14.062Z,25.60
2017-07-21T19:24:41.681Z,25.60
2017-07-21T19:27:09.526Z,25.60
2017-07-21T19:29:37.189Z,25.60
2017-07-21T19:32:04.714Z,25.60
2017-07-21T19:34:32.319Z,25.70
2017-07-21T19:36:59.866Z,25.70
2017-07-21T19:39:27.370Z,25.60
2017-07-21T19:41:55.284Z,25.60
2017-07-21T19:44:23.395Z,25.50
2017-07-21T19:46:51.742Z,25.20
2017-07-21T19:49:19.519Z,24.50
2017-07-21T19:51:47.056Z,24.00
2017-07-21T19:54:14.747Z,23.70
2017-07-21T19:56:42.397Z,23.50
2017-07-21T19:59:09.890Z,23.10
2017-07-21T20:01:37.402Z,22.90
2017-07-21T20:04:05.610Z,22.80
2017-07-21T20:06:33.705Z,22.80
2017-07-21T20:09:01.292Z,22.60
2017-07-21T20:11:29.567Z,22.50
2017-07-21T20:13:57.116Z,22.50
2017-07-21T20:16:24.668Z,22.30
2017-07-21T20:18:52.750Z,22.00
2017-07-21T20:21:20.387Z,21.60
2017-07-21T20:23:48.343Z,21.40
2017-07-21T20:26:16.040Z,21.20
2017-07-21T20:28:43.562Z,21.00
2017-07-21T20:31:11.079Z,20.80
2017-07-21T20:33:38.656Z,20.90
2017-07-21T20:36:06.446Z,20.80
2017-07-21T20:38:33.986Z,20.60
2017-07-21T20:41:01.617Z,20.20
2017-07-21T20:43:29.144Z,19.80
2017-07-21T20:45:56.703Z,19.60
2017-07-21T20:48:24.650Z,19.40
2017-07-21T20:50:52.171Z,19.20
2017-07-21T20:53:19.802Z,19.00
2017-07-21T20:55:47.409Z,18.90
2017-07-21T20:58:15.208Z,18.70
2017-07-21T21:00:42.800Z,18.40
2017-07-21T21:03:10.374Z,18.10
2017-07-21T21:05:37.918Z,17.80
2017-07-21T21:08:05.435Z,17.70
2017-07-21T21:10:33.026Z,17.60
2017-07-21T21:13:00.531Z,17.50
2017-07-21T21:15:28.108Z,17.40
2017-07-21T21:17:55.663Z,17.40
2017-07-21T21:20:23.235Z,17.30
2017-07-21T21:22:50.741Z,17.30
2017-07-21T21:25:18.285Z,17.30
2017-07-21T21:27:45.781Z,17.20
2017-07-21T21:30:13.875Z,17.20
2017-07-21T21:32:41.442Z,17.10
2017-07-21T21:35:08.947Z,17.00
2017-07-21T21:37:36.518Z,17.00
2017-07-21T21:40:04.176Z,17.00
2017-07-21T21:42:31.683Z,17.00
2017-07-21T21:44:59.180Z,17.00
2017-07-21T21:47:26.898Z,16.90
2017-07-21T21:49:54.442Z,16.90
2017-07-21T21:52:22.742Z,17.00
2017-07-21T21:54:50.353Z,17.10
2017-07-21T21:57:17.949Z,17.20
2017-07-21T21:59:45.483Z,17.20
2017-07-21T22:02:13.048Z,17.20
2017-07-21T22:04:40.563Z,17.20
2017-07-21T22:07:08.083Z,17.20
2017-07-21T22:09:35.656Z,17.30
2017-07-21T22:12:03.207Z,17.30
2017-07-21T22:14:30.730Z,17.30
2017-07-21T22:16:58.282Z,17.20
2017-07-21T22:19:25.902Z,17.20
2017-07-21T22:21:53.430Z,17.10
2017-07-21T22:24:21.143Z,17.10
2017-07-21T22:26:48.710Z,17.10
2017-07-21T22:29:16.232Z,17.10
2017-07-21T22:31:43.803Z,17.00
2017-07-21T22:34:11.312Z,17.10
2017-07-21T22:36:38.890Z,17.10
2017-07-21T22:39:06.435Z,17.10
2017-07-21T22:41:33.944Z,17.00
2017-07-21T22:44:01.481Z,17.00
2017-07-21T22:46:29.055Z,17.10
2017-07-21T22:48:56.632Z,17.10
2017-07-21T22:51:24.181Z,17.20
2017-07-21T22:53:51.863Z,17.20
2017-07-21T22:56:19.823Z,17.20
2017-07-21T22:58:47.347Z,17.10
2017-07-21T23:01:14.912Z,17.00
2017-07-21T23:03:42.465Z,17.00
2017-07-21T23:06:10.053Z,17.00
2017-07-21T23:08:37.721Z,16.70
2017-07-21T23:11:05.253Z,16.80
2017-07-21T23:13:32.846Z,16.90
2017-07-21T23:16:00.416Z,17.00
2017-07-21T23:18:27.965Z,16.90
2017-07-21T23:20:55.614Z,17.00
2017-07-21T23:23:23.188Z,17.00
2017-07-21T23:25:50.775Z,17.00
2017-07-21T23:28:18.291Z,16.90
2017-07-21T23:30:45.887Z,16.90
2017-07-21T23:33:13.396Z,16.90
2017-07-21T23:35:40.903Z,16.90
2017-07-21T23:38:08.446Z,16.90
2017-07-21T23:40:35.946Z,17.00
2017-07-21T23:43:03.528Z,17.00
2017-07-21T23:45:31.091Z,17.00
2017-07-21T23:47:58.638Z,17.10
2017-07-21T23:50:26.165Z,17.10
2017-07-21T23:52:53.715Z,17.10
2017-07-21T23:55:21.276Z,17.20
2017-07-21T23:57:48.774Z,17.30
